sensor_id;sensor_type;location;lat;lon;timestamp;temperature;humidity
27978;DHT22;15314;49.248;6.968;2023-04-25T00:00:51;9.70;99.90
27978;DHT22;15314;49.248;6.968;2023-04-25T00:01:52;9.50;99.90
27978;DHT22;15314;49.248;6.968;2023-04-25T00:02:53;9.60;99.90
27978;DHT22;15314;49.248;6.968;2023-04-25T00:03:56;9.60;99.90
27978;DHT22;15314;49.248;6.968;2023-04-25T00:04:57;9.60;99.90
27978;DHT22;15314;49.248;6.968;2023-04-25T00:05:59;9.50;99.90
27978;DHT22;15314;49.248;6.968;2023-04-25T00:07:03;9.50;99.90
27978;DHT22;15314;49.248;6.968;2023-04-25T00:08:05;9.40;99.90
27978;DHT22;15314;49.248;6.968;2023-04-25T00:09:06;9.40;99.90
27978;DHT22;15314;49.248;6.968;2023-04-25T00:10:11;9.40;99.90
27978;DHT22;15314;49.248;6.968;2023-04-25T00:11:12;9.40;99.90
27978;DHT22;15314;49.248;6.968;2023-04-25T00:12:13;9.40;99.90
27978;DHT22;15314;49.248;6.968;2023-04-25T00:13:13;9.50;99.90
27978;DHT22;15314;49.248;6.968;2023-04-25T00:14:15;9.50;99.90
27978;DHT22;15314;49.248;6.968;2023-04-25T00:15:17;9.50;99.90
27978;DHT22;15314;49.248;6.968;2023-04-25T00:16:18;9.50;99.90
27978;DHT22;15314;49.248;6.968;2023-04-25T00:17:18;9.50;99.90
27978;DHT22;15314;49.248;6.968;2023-04-25T00:18:20;9.40;99.90
27978;DHT22;15314;49.248;6.968;2023-04-25T00:19:20;9.40;99.90
27978;DHT22;15314;49.248;6.968;2023-04-25T00:20:21;9.30;99.90
27978;DHT22;15314;49.248;6.968;2023-04-25T00:21:24;9.20;99.90
27978;DHT22;15314;49.248;6.968;2023-04-25T00:22:24;9.20;99.90
27978;DHT22;15314;49.248;6.968;2023-04-25T00:23:25;9.20;99.90
27978;DHT22;15314;49.248;6.968;2023-04-25T00:24:26;9.20;99.90
27978;DHT22;15314;49.248;6.968;2023-04-25T00:25:27;9.10;99.90
27978;DHT22;15314;49.248;6.968;2023-04-25T00:26:28;9.20;99.90
27978;DHT22;15314;49.248;6.968;2023-04-25T00:27:28;9.10;99.90
27978;DHT22;15314;49.248;6.968;2023-04-25T00:28:29;9.10;99.90
27978;DHT22;15314;49.248;6.968;2023-04-25T00:29:30;9.20;99.90
27978;DHT22;15314;49.248;6.968;2023-04-25T00:30:30;9.10;99.90
27978;DHT22;15314;49.248;6.968;2023-04-25T00:31:31;9.10;99.90
27978;DHT22;15314;49.248;6.968;2023-04-25T00:32:32;9.10;99.90
27978;DHT22;15314;49.248;6.968;2023-04-25T00:33:32;9.10;99.90
27978;DHT22;15314;49.248;6.968;2023-04-25T00:34:33;9.10;99.90
27978;DHT22;15314;49.248;6.968;2023-04-25T00:35:34;9.10;99.90
27978;DHT22;15314;49.248;6.968;2023-04-25T00:36:35;9.10;99.90
27978;DHT22;15314;49.248;6.968;2023-04-25T00:37:36;9.10;99.90
27978;DHT22;15314;49.248;6.968;2023-04-25T00:38:37;9.10;99.90
27978;DHT22;15314;49.248;6.968;2023-04-25T00:39:38;9.10;99.90
27978;DHT22;15314;49.248;6.968;2023-04-25T00:40:39;9.10;99.90
27978;DHT22;15314;49.248;6.968;2023-04-25T00:41:39;9.10;99.90
27978;DHT22;15314;49.248;6.968;2023-04-25T00:42:41;9.10;99.90
27978;DHT22;15314;49.248;6.968;2023-04-25T00:43:43;9.10;99.90
27978;DHT22;15314;49.248;6.968;2023-04-25T00:44:45;9.10;99.90
27978;DHT22;15314;49.248;6.968;2023-04-25T00:45:47;9.10;99.90
27978;DHT22;15314;49.248;6.968;2023-04-25T00:46:48;9.10;99.90
27978;DHT22;15314;49.248;6.968;2023-04-25T00:47:50;9.10;99.90
27978;DHT22;15314;49.248;6.968;2023-04-25T00:48:50;9.10;99.90
27978;DHT22;15314;49.248;6.968;2023-04-25T00:49:51;9.10;99.90
27978;DHT22;15314;49.248;6.968;2023-04-25T00:50:55;9.20;99.90
27978;DHT22;15314;49.248;6.968;2023-04-25T00:51:57;9.20;99.90
27978;DHT22;15314;49.248;6.968;2023-04-25T00:52:58;9.20;99.90
27978;DHT22;15314;49.248;6.968;2023-04-25T00:53:59;9.20;99.90
27978;DHT22;15314;49.248;6.968;2023-04-25T00:55:00;9.20;99.90
27978;DHT22;15314;49.248;6.968;2023-04-25T00:56:01;9.20;99.90
27978;DHT22;15314;49.248;6.968;2023-04-25T00:57:02;9.20;99.90
27978;DHT22;15314;49.248;6.968;2023-04-25T00:58:03;9.20;99.90
27978;DHT22;15314;49.248;6.968;2023-04-25T00:59:04;9.20;99.90
27978;DHT22;15314;49.248;6.968;2023-04-25T01:00:06;9.20;99.90
27978;DHT22;15314;49.248;6.968;2023-04-25T01:01:08;9.20;99.90
27978;DHT22;15314;49.248;6.968;2023-04-25T01:02:09;9.20;99.90
27978;DHT22;15314;49.248;6.968;2023-04-25T01:03:10;9.20;99.90
27978;DHT22;15314;49.248;6.968;2023-04-25T01:04:11;9.20;99.90
27978;DHT22;15314;49.248;6.968;2023-04-25T01:05:11;9.10;99.90
27978;DHT22;15314;49.248;6.968;2023-04-25T01:06:13;9.10;99.90
27978;DHT22;15314;49.248;6.968;2023-04-25T01:07:14;9.10;99.90
27978;DHT22;15314;49.248;6.968;2023-04-25T01:08:15;9.00;99.90
27978;DHT22;15314;49.248;6.968;2023-04-25T01:09:16;9.00;99.90
27978;DHT22;15314;49.248;6.968;2023-04-25T01:10:17;9.00;99.90
27978;DHT22;15314;49.248;6.968;2023-04-25T01:11:17;9.00;99.90
27978;DHT22;15314;49.248;6.968;2023-04-25T01:12:18;9.00;99.90
27978;DHT22;15314;49.248;6.968;2023-04-25T01:13:19;9.00;99.90
27978;DHT22;15314;49.248;6.968;2023-04-25T01:14:20;9.10;99.90
27978;DHT22;15314;49.248;6.968;2023-04-25T01:15:21;9.10;99.90
27978;DHT22;15314;49.248;6.968;2023-04-25T01:16:22;9.10;99.90
27978;DHT22;15314;49.248;6.968;2023-04-25T01:17:24;9.10;99.90
27978;DHT22;15314;49.248;6.968;2023-04-25T01:18:25;9.10;99.90
27978;DHT22;15314;49.248;6.968;2023-04-25T01:19:26;9.10;99.90
27978;DHT22;15314;49.248;6.968;2023-04-25T01:20:27;9.10;99.90
27978;DHT22;15314;49.248;6.968;2023-04-25T01:21:29;9.10;99.90
27978;DHT22;15314;49.248;6.968;2023-04-25T01:22:32;9.10;99.90
27978;DHT22;15314;49.248;6.968;2023-04-25T01:23:32;9.10;99.90
27978;DHT22;15314;49.248;6.968;2023-04-25T01:24:33;9.10;99.90
27978;DHT22;15314;49.248;6.968;2023-04-25T01:25:34;9.10;99.90
27978;DHT22;15314;49.248;6.968;2023-04-25T01:26:36;9.10;99.90
27978;DHT22;15314;49.248;6.968;2023-04-25T01:27:37;9.10;99.90
27978;DHT22;15314;49.248;6.968;2023-04-25T01:28:39;9.10;99.90
27978;DHT22;15314;49.248;6.968;2023-04-25T01:29:42;9.10;99.90
27978;DHT22;15314;49.248;6.968;2023-04-25T01:30:43;9.10;99.90
27978;DHT22;15314;49.248;6.968;2023-04-25T01:31:45;9.10;99.90
27978;DHT22;15314;49.248;6.968;2023-04-25T01:32:46;9.10;99.90
27978;DHT22;15314;49.248;6.968;2023-04-25T01:33:48;9.10;99.90
27978;DHT22;15314;49.248;6.968;2023-04-25T01:34:49;9.10;99.90
27978;DHT22;15314;49.248;6.968;2023-04-25T01:35:49;9.10;99.90
27978;DHT22;15314;49.248;6.968;2023-04-25T01:36:50;9.10;99.90
27978;DHT22;15314;49.248;6.968;2023-04-25T01:37:51;9.10;99.90
27978;DHT22;15314;49.248;6.968;2023-04-25T01:38:53;9.10;99.90
27978;DHT22;15314;49.248;6.968;2023-04-25T01:39:53;9.00;99.90
27978;DHT22;15314;49.248;6.968;2023-04-25T01:40:54;9.00;99.90
27978;DHT22;15314;49.248;6.968;2023-04-25T01:41:55;9.10;99.90
27978;DHT22;15314;49.248;6.968;2023-04-25T01:42:57;9.10;99.90
27978;DHT22;15314;49.248;6.968;2023-04-25T01:43:57;9.10;99.90
27978;DHT22;15314;49.248;6.968;2023-04-25T01:44:59;9.00;99.90
27978;DHT22;15314;49.248;6.968;2023-04-25T01:45:59;8.90;99.90
27978;DHT22;15314;49.248;6.968;2023-04-25T01:47:00;8.90;99.90
27978;DHT22;15314;49.248;6.968;2023-04-25T01:48:01;8.90;99.90
27978;DHT22;15314;49.248;6.968;2023-04-25T01:49:02;8.90;99.90
27978;DHT22;15314;49.248;6.968;2023-04-25T01:50:03;8.90;99.90
27978;DHT22;15314;49.248;6.968;2023-04-25T01:51:04;8.80;99.90
27978;DHT22;15314;49.248;6.968;2023-04-25T01:52:05;8.80;99.90
27978;DHT22;15314;49.248;6.968;2023-04-25T01:53:06;8.80;99.90
27978;DHT22;15314;49.248;6.968;2023-04-25T01:54:08;8.80;99.90
27978;DHT22;15314;49.248;6.968;2023-04-25T01:55:09;8.80;99.90
27978;DHT22;15314;49.248;6.968;2023-04-25T01:56:10;8.80;99.90
27978;DHT22;15314;49.248;6.968;2023-04-25T01:57:12;8.90;99.90
27978;DHT22;15314;49.248;6.968;2023-04-25T01:58:12;8.80;99.90
27978;DHT22;15314;49.248;6.968;2023-04-25T01:59:13;8.80;99.90
27978;DHT22;15314;49.248;6.968;2023-04-25T02:00:14;8.90;99.90
27978;DHT22;15314;49.248;6.968;2023-04-25T02:01:15;8.90;99.90
27978;DHT22;15314;49.248;6.968;2023-04-25T02:02:15;8.90;99.90
27978;DHT22;15314;49.248;6.968;2023-04-25T02:03:16;8.90;99.90
27978;DHT22;15314;49.248;6.968;2023-04-25T02:04:17;8.90;99.90
27978;DHT22;15314;49.248;6.968;2023-04-25T02:05:17;8.90;99.90
27978;DHT22;15314;49.248;6.968;2023-04-25T02:06:18;9.00;99.90
27978;DHT22;15314;49.248;6.968;2023-04-25T02:07:19;8.90;99.90
27978;DHT22;15314;49.248;6.968;2023-04-25T02:08:19;9.00;99.90
27978;DHT22;15314;49.248;6.968;2023-04-25T02:09:20;9.00;99.90
27978;DHT22;15314;49.248;6.968;2023-04-25T02:10:21;8.90;99.90
27978;DHT22;15314;49.248;6.968;2023-04-25T02:11:22;8.80;99.90
27978;DHT22;15314;49.248;6.968;2023-04-25T02:12:22;8.80;99.90
27978;DHT22;15314;49.248;6.968;2023-04-25T02:13:23;8.80;99.90
27978;DHT22;15314;49.248;6.968;2023-04-25T02:14:24;8.80;99.90
27978;DHT22;15314;49.248;6.968;2023-04-25T02:15:24;8.80;99.90
27978;DHT22;15314;49.248;6.968;2023-04-25T02:16:25;8.80;99.90
27978;DHT22;15314;49.248;6.968;2023-04-25T02:17:26;8.90;99.90
27978;DHT22;15314;49.248;6.968;2023-04-25T02:18:26;8.90;99.90
27978;DHT22;15314;49.248;6.968;2023-04-25T02:19:27;8.90;99.90
27978;DHT22;15314;49.248;6.968;2023-04-25T02:20:29;8.80;99.90
27978;DHT22;15314;49.248;6.968;2023-04-25T02:21:31;8.70;99.90
27978;DHT22;15314;49.248;6.968;2023-04-25T02:22:32;8.70;99.90
27978;DHT22;15314;49.248;6.968;2023-04-25T02:23:34;8.70;99.90
27978;DHT22;15314;49.248;6.968;2023-04-25T02:24:35;8.60;99.90
27978;DHT22;15314;49.248;6.968;2023-04-25T02:25:35;8.70;99.90
27978;DHT22;15314;49.248;6.968;2023-04-25T02:26:36;8.70;99.90
27978;DHT22;15314;49.248;6.968;2023-04-25T02:27:37;8.80;99.90
27978;DHT22;15314;49.248;6.968;2023-04-25T02:28:37;8.70;99.90
27978;DHT22;15314;49.248;6.968;2023-04-25T02:29:38;8.80;99.90
27978;DHT22;15314;49.248;6.968;2023-04-25T02:30:39;8.80;99.90
27978;DHT22;15314;49.248;6.968;2023-04-25T02:31:39;8.80;99.90
27978;DHT22;15314;49.248;6.968;2023-04-25T02:32:40;8.80;99.90
27978;DHT22;15314;49.248;6.968;2023-04-25T02:33:42;8.80;99.90
27978;DHT22;15314;49.248;6.968;2023-04-25T02:34:43;8.80;99.90
27978;DHT22;15314;49.248;6.968;2023-04-25T02:35:43;8.80;99.90
27978;DHT22;15314;49.248;6.968;2023-04-25T02:36:44;8.80;99.90
27978;DHT22;15314;49.248;6.968;2023-04-25T02:37:45;8.80;99.90
27978;DHT22;15314;49.248;6.968;2023-04-25T02:38:46;8.70;99.90
27978;DHT22;15314;49.248;6.968;2023-04-25T02:39:46;8.80;99.90
27978;DHT22;15314;49.248;6.968;2023-04-25T02:40:47;8.80;99.90
27978;DHT22;15314;49.248;6.968;2023-04-25T02:41:48;8.90;99.90
27978;DHT22;15314;49.248;6.968;2023-04-25T02:42:48;8.90;99.90
27978;DHT22;15314;49.248;6.968;2023-04-25T02:43:49;8.90;99.90
27978;DHT22;15314;49.248;6.968;2023-04-25T02:44:50;8.90;99.90
27978;DHT22;15314;49.248;6.968;2023-04-25T02:45:51;9.00;99.90
27978;DHT22;15314;49.248;6.968;2023-04-25T02:46:51;9.00;99.90
27978;DHT22;15314;49.248;6.968;2023-04-25T02:47:52;9.00;99.90
27978;DHT22;15314;49.248;6.968;2023-04-25T02:48:53;9.00;99.90
27978;DHT22;15314;49.248;6.968;2023-04-25T02:49:53;9.00;99.90
27978;DHT22;15314;49.248;6.968;2023-04-25T02:50:54;9.00;99.90
27978;DHT22;15314;49.248;6.968;2023-04-25T02:51:55;9.00;99.90
27978;DHT22;15314;49.248;6.968;2023-04-25T02:52:56;9.00;99.90
27978;DHT22;15314;49.248;6.968;2023-04-25T02:53:56;9.00;99.90
27978;DHT22;15314;49.248;6.968;2023-04-25T02:54:57;8.90;99.90
27978;DHT22;15314;49.248;6.968;2023-04-25T02:55:58;8.90;99.90
27978;DHT22;15314;49.248;6.968;2023-04-25T02:56:59;8.90;99.90
27978;DHT22;15314;49.248;6.968;2023-04-25T02:58:01;9.00;99.90
27978;DHT22;15314;49.248;6.968;2023-04-25T02:59:02;8.90;99.90
27978;DHT22;15314;49.248;6.968;2023-04-25T03:00:02;8.90;99.90
27978;DHT22;15314;49.248;6.968;2023-04-25T03:01:05;8.90;99.90
27978;DHT22;15314;49.248;6.968;2023-04-25T03:02:06;8.90;99.90
27978;DHT22;15314;49.248;6.968;2023-04-25T03:03:06;8.90;99.90
27978;DHT22;15314;49.248;6.968;2023-04-25T03:04:07;8.90;99.90
27978;DHT22;15314;49.248;6.968;2023-04-25T03:05:08;8.80;99.90
27978;DHT22;15314;49.248;6.968;2023-04-25T03:06:09;8.80;99.90
27978;DHT22;15314;49.248;6.968;2023-04-25T03:07:09;8.70;99.90
27978;DHT22;15314;49.248;6.968;2023-04-25T03:08:10;8.70;99.90
27978;DHT22;15314;49.248;6.968;2023-04-25T03:09:11;8.70;99.90
27978;DHT22;15314;49.248;6.968;2023-04-25T03:10:12;8.70;99.90
27978;DHT22;15314;49.248;6.968;2023-04-25T03:11:12;8.60;99.90
27978;DHT22;15314;49.248;6.968;2023-04-25T03:12:13;8.60;99.90
27978;DHT22;15314;49.248;6.968;2023-04-25T03:13:14;8.50;99.90
27978;DHT22;15314;49.248;6.968;2023-04-25T03:14:14;8.60;99.90
27978;DHT22;15314;49.248;6.968;2023-04-25T03:15:15;8.50;99.90
27978;DHT22;15314;49.248;6.968;2023-04-25T03:16:17;8.50;99.90
27978;DHT22;15314;49.248;6.968;2023-04-25T03:17:17;8.60;99.90
27978;DHT22;15314;49.248;6.968;2023-04-25T03:18:18;8.60;99.90
27978;DHT22;15314;49.248;6.968;2023-04-25T03:19:19;8.60;99.90
27978;DHT22;15314;49.248;6.968;2023-04-25T03:20:20;8.70;99.90
27978;DHT22;15314;49.248;6.968;2023-04-25T03:21:21;8.70;99.90
27978;DHT22;15314;49.248;6.968;2023-04-25T03:22:22;8.80;99.90
27978;DHT22;15314;49.248;6.968;2023-04-25T03:23:22;8.80;99.90
27978;DHT22;15314;49.248;6.968;2023-04-25T03:24:23;8.80;99.90
27978;DHT22;15314;49.248;6.968;2023-04-25T03:25:24;8.80;99.90
27978;DHT22;15314;49.248;6.968;2023-04-25T03:26:25;8.80;99.90
27978;DHT22;15314;49.248;6.968;2023-04-25T03:27:25;8.70;99.90
27978;DHT22;15314;49.248;6.968;2023-04-25T03:28:26;8.70;99.90
27978;DHT22;15314;49.248;6.968;2023-04-25T03:29:27;8.70;99.90
27978;DHT22;15314;49.248;6.968;2023-04-25T03:30:29;8.60;99.90
27978;DHT22;15314;49.248;6.968;2023-04-25T03:31:30;8.70;99.90
27978;DHT22;15314;49.248;6.968;2023-04-25T03:32:31;8.70;99.90
27978;DHT22;15314;49.248;6.968;2023-04-25T03:33:32;8.70;99.90
27978;DHT22;15314;49.248;6.968;2023-04-25T03:34:32;8.70;99.90
27978;DHT22;15314;49.248;6.968;2023-04-25T03:35:33;8.80;99.90
27978;DHT22;15314;49.248;6.968;2023-04-25T03:36:34;8.80;99.90
27978;DHT22;15314;49.248;6.968;2023-04-25T03:37:35;8.90;99.90
27978;DHT22;15314;49.248;6.968;2023-04-25T03:38:36;8.90;99.90
27978;DHT22;15314;49.248;6.968;2023-04-25T03:39:36;8.90;99.90
27978;DHT22;15314;49.248;6.968;2023-04-25T03:40:38;8.90;99.90
27978;DHT22;15314;49.248;6.968;2023-04-25T03:41:38;8.90;99.90
27978;DHT22;15314;49.248;6.968;2023-04-25T03:42:39;8.80;99.90
27978;DHT22;15314;49.248;6.968;2023-04-25T03:43:40;8.90;99.90
27978;DHT22;15314;49.248;6.968;2023-04-25T03:44:40;8.90;99.90
27978;DHT22;15314;49.248;6.968;2023-04-25T03:45:41;8.90;99.90
27978;DHT22;15314;49.248;6.968;2023-04-25T03:46:42;8.90;99.90
27978;DHT22;15314;49.248;6.968;2023-04-25T03:47:43;8.90;99.90
27978;DHT22;15314;49.248;6.968;2023-04-25T03:48:44;8.90;99.90
27978;DHT22;15314;49.248;6.968;2023-04-25T03:49:45;9.00;99.90
27978;DHT22;15314;49.248;6.968;2023-04-25T03:50:45;9.00;99.90
27978;DHT22;15314;49.248;6.968;2023-04-25T03:51:46;9.00;99.90
27978;DHT22;15314;49.248;6.968;2023-04-25T03:52:47;9.00;99.90
27978;DHT22;15314;49.248;6.968;2023-04-25T03:53:48;9.00;99.90
27978;DHT22;15314;49.248;6.968;2023-04-25T03:54:48;9.00;99.90
27978;DHT22;15314;49.248;6.968;2023-04-25T03:55:49;9.00;99.90
27978;DHT22;15314;49.248;6.968;2023-04-25T03:56:50;9.00;99.90
27978;DHT22;15314;49.248;6.968;2023-04-25T03:57:50;9.00;99.90
27978;DHT22;15314;49.248;6.968;2023-04-25T03:58:51;9.00;99.90
27978;DHT22;15314;49.248;6.968;2023-04-25T03:59:52;9.00;99.90
27978;DHT22;15314;49.248;6.968;2023-04-25T04:00:52;9.00;99.90
27978;DHT22;15314;49.248;6.968;2023-04-25T04:01:54;9.10;99.90
27978;DHT22;15314;49.248;6.968;2023-04-25T04:02:54;9.00;99.90
27978;DHT22;15314;49.248;6.968;2023-04-25T04:03:55;9.00;99.90
27978;DHT22;15314;49.248;6.968;2023-04-25T04:04:56;9.00;99.90
27978;DHT22;15314;49.248;6.968;2023-04-25T04:05:57;9.10;99.90
27978;DHT22;15314;49.248;6.968;2023-04-25T04:06:58;9.00;99.90
27978;DHT22;15314;49.248;6.968;2023-04-25T04:07:58;9.00;99.90
27978;DHT22;15314;49.248;6.968;2023-04-25T04:08:59;9.00;99.90
27978;DHT22;15314;49.248;6.968;2023-04-25T04:10:00;9.00;99.90
27978;DHT22;15314;49.248;6.968;2023-04-25T04:11:01;9.00;99.90
27978;DHT22;15314;49.248;6.968;2023-04-25T04:12:01;9.00;99.90
27978;DHT22;15314;49.248;6.968;2023-04-25T04:13:02;9.00;99.90
27978;DHT22;15314;49.248;6.968;2023-04-25T04:14:06;9.00;99.90
27978;DHT22;15314;49.248;6.968;2023-04-25T04:15:07;9.00;99.90
27978;DHT22;15314;49.248;6.968;2023-04-25T04:16:08;9.00;99.90
27978;DHT22;15314;49.248;6.968;2023-04-25T04:17:09;9.00;99.90
27978;DHT22;15314;49.248;6.968;2023-04-25T04:18:09;9.00;99.90
27978;DHT22;15314;49.248;6.968;2023-04-25T04:19:11;9.00;99.90
27978;DHT22;15314;49.248;6.968;2023-04-25T04:20:11;9.10;99.90
27978;DHT22;15314;49.248;6.968;2023-04-25T04:21:12;9.10;99.90
27978;DHT22;15314;49.248;6.968;2023-04-25T04:22:13;9.20;99.90
27978;DHT22;15314;49.248;6.968;2023-04-25T04:23:14;9.20;99.90
27978;DHT22;15314;49.248;6.968;2023-04-25T04:24:14;9.20;99.90
27978;DHT22;15314;49.248;6.968;2023-04-25T04:25:17;9.20;99.90
27978;DHT22;15314;49.248;6.968;2023-04-25T04:26:18;9.20;99.90
27978;DHT22;15314;49.248;6.968;2023-04-25T04:27:19;9.20;99.90
27978;DHT22;15314;49.248;6.968;2023-04-25T04:28:20;9.30;99.90
27978;DHT22;15314;49.248;6.968;2023-04-25T04:29:22;9.20;99.90
27978;DHT22;15314;49.248;6.968;2023-04-25T04:30:24;9.20;99.90
27978;DHT22;15314;49.248;6.968;2023-04-25T04:31:24;9.20;99.90
27978;DHT22;15314;49.248;6.968;2023-04-25T04:32:25;9.10;99.90
27978;DHT22;15314;49.248;6.968;2023-04-25T04:33:26;9.10;99.90
27978;DHT22;15314;49.248;6.968;2023-04-25T04:34:26;9.10;99.90
27978;DHT22;15314;49.248;6.968;2023-04-25T04:35:27;9.10;99.90
27978;DHT22;15314;49.248;6.968;2023-04-25T04:36:28;9.20;99.90
27978;DHT22;15314;49.248;6.968;2023-04-25T04:37:28;9.20;99.90
27978;DHT22;15314;49.248;6.968;2023-04-25T04:38:30;9.20;99.90
27978;DHT22;15314;49.248;6.968;2023-04-25T04:39:30;9.20;99.90
27978;DHT22;15314;49.248;6.968;2023-04-25T04:40:31;9.20;99.90
27978;DHT22;15314;49.248;6.968;2023-04-25T04:41:32;9.10;99.90
27978;DHT22;15314;49.248;6.968;2023-04-25T04:42:33;9.10;99.90
27978;DHT22;15314;49.248;6.968;2023-04-25T04:43:33;9.10;99.90
27978;DHT22;15314;49.248;6.968;2023-04-25T04:44:34;9.10;99.90
27978;DHT22;15314;49.248;6.968;2023-04-25T04:45:36;9.10;99.90
27978;DHT22;15314;49.248;6.968;2023-04-25T04:46:38;9.10;99.90
27978;DHT22;15314;49.248;6.968;2023-04-25T04:47:42;9.10;99.90
27978;DHT22;15314;49.248;6.968;2023-04-25T04:48:43;9.20;99.90
27978;DHT22;15314;49.248;6.968;2023-04-25T04:49:44;9.20;99.90
27978;DHT22;15314;49.248;6.968;2023-04-25T04:50:45;9.20;99.90
27978;DHT22;15314;49.248;6.968;2023-04-25T04:51:46;9.20;99.90
27978;DHT22;15314;49.248;6.968;2023-04-25T04:52:47;9.30;99.90
27978;DHT22;15314;49.248;6.968;2023-04-25T04:53:48;9.30;99.90
27978;DHT22;15314;49.248;6.968;2023-04-25T04:54:48;9.30;99.90
27978;DHT22;15314;49.248;6.968;2023-04-25T04:55:49;9.20;99.90
27978;DHT22;15314;49.248;6.968;2023-04-25T04:56:50;9.10;99.90
27978;DHT22;15314;49.248;6.968;2023-04-25T04:57:52;9.00;99.90
27978;DHT22;15314;49.248;6.968;2023-04-25T04:58:53;9.00;99.90
27978;DHT22;15314;49.248;6.968;2023-04-25T04:59:54;9.00;99.90
27978;DHT22;15314;49.248;6.968;2023-04-25T05:00:55;9.10;99.90
27978;DHT22;15314;49.248;6.968;2023-04-25T05:01:56;9.00;99.90
27978;DHT22;15314;49.248;6.968;2023-04-25T05:02:57;9.10;99.90
27978;DHT22;15314;49.248;6.968;2023-04-25T05:03:57;9.10;99.90
27978;DHT22;15314;49.248;6.968;2023-04-25T05:05:01;9.00;99.90
27978;DHT22;15314;49.248;6.968;2023-04-25T05:06:02;9.10;99.90
27978;DHT22;15314;49.248;6.968;2023-04-25T05:07:02;9.20;99.90
27978;DHT22;15314;49.248;6.968;2023-04-25T05:08:03;9.20;99.90
27978;DHT22;15314;49.248;6.968;2023-04-25T05:09:04;9.20;99.90
27978;DHT22;15314;49.248;6.968;2023-04-25T05:10:05;9.10;99.90
27978;DHT22;15314;49.248;6.968;2023-04-25T05:11:06;9.10;99.90
27978;DHT22;15314;49.248;6.968;2023-04-25T05:12:07;9.10;99.90
27978;DHT22;15314;49.248;6.968;2023-04-25T05:13:07;9.10;99.90
27978;DHT22;15314;49.248;6.968;2023-04-25T05:14:08;9.10;99.90
27978;DHT22;15314;49.248;6.968;2023-04-25T05:15:09;9.10;99.90
27978;DHT22;15314;49.248;6.968;2023-04-25T05:16:10;9.20;99.90
27978;DHT22;15314;49.248;6.968;2023-04-25T05:17:10;9.20;99.90
27978;DHT22;15314;49.248;6.968;2023-04-25T05:18:11;9.20;99.90
27978;DHT22;15314;49.248;6.968;2023-04-25T05:19:12;9.20;99.90
27978;DHT22;15314;49.248;6.968;2023-04-25T05:20:13;9.30;99.90
27978;DHT22;15314;49.248;6.968;2023-04-25T05:21:14;9.20;99.90
27978;DHT22;15314;49.248;6.968;2023-04-25T05:22:15;9.30;99.90
27978;DHT22;15314;49.248;6.968;2023-04-25T05:23:15;9.20;99.90
27978;DHT22;15314;49.248;6.968;2023-04-25T05:24:16;9.30;99.90
27978;DHT22;15314;49.248;6.968;2023-04-25T05:25:17;9.30;99.90
27978;DHT22;15314;49.248;6.968;2023-04-25T05:26:18;9.40;99.90
27978;DHT22;15314;49.248;6.968;2023-04-25T05:27:19;9.40;99.90
27978;DHT22;15314;49.248;6.968;2023-04-25T05:28:20;9.40;99.90
27978;DHT22;15314;49.248;6.968;2023-04-25T05:29:21;9.40;99.90
27978;DHT22;15314;49.248;6.968;2023-04-25T05:30:22;9.40;99.90
27978;DHT22;15314;49.248;6.968;2023-04-25T05:31:23;9.30;99.90
27978;DHT22;15314;49.248;6.968;2023-04-25T05:32:24;9.30;99.90
27978;DHT22;15314;49.248;6.968;2023-04-25T05:33:25;9.30;99.90
27978;DHT22;15314;49.248;6.968;2023-04-25T05:34:26;9.30;99.90
27978;DHT22;15314;49.248;6.968;2023-04-25T05:35:26;9.30;99.90
27978;DHT22;15314;49.248;6.968;2023-04-25T05:36:27;9.40;99.90
27978;DHT22;15314;49.248;6.968;2023-04-25T05:37:28;9.30;99.90
27978;DHT22;15314;49.248;6.968;2023-04-25T05:38:31;9.30;99.90
27978;DHT22;15314;49.248;6.968;2023-04-25T05:39:32;9.30;99.90
27978;DHT22;15314;49.248;6.968;2023-04-25T05:40:32;9.30;99.90
27978;DHT22;15314;49.248;6.968;2023-04-25T05:41:33;9.30;99.90
27978;DHT22;15314;49.248;6.968;2023-04-25T05:42:34;9.30;99.90
27978;DHT22;15314;49.248;6.968;2023-04-25T05:43:37;9.30;99.90
27978;DHT22;15314;49.248;6.968;2023-04-25T05:44:38;9.30;99.90
27978;DHT22;15314;49.248;6.968;2023-04-25T05:45:39;9.30;99.90
27978;DHT22;15314;49.248;6.968;2023-04-25T05:46:39;9.30;99.90
27978;DHT22;15314;49.248;6.968;2023-04-25T05:47:40;9.30;99.90
27978;DHT22;15314;49.248;6.968;2023-04-25T05:48:41;9.30;99.90
27978;DHT22;15314;49.248;6.968;2023-04-25T05:49:42;9.30;99.90
27978;DHT22;15314;49.248;6.968;2023-04-25T05:50:42;9.30;99.90
27978;DHT22;15314;49.248;6.968;2023-04-25T05:51:43;9.30;99.90
27978;DHT22;15314;49.248;6.968;2023-04-25T05:52:44;9.20;99.90
27978;DHT22;15314;49.248;6.968;2023-04-25T05:53:45;9.20;99.90
27978;DHT22;15314;49.248;6.968;2023-04-25T05:54:45;9.20;99.90
27978;DHT22;15314;49.248;6.968;2023-04-25T05:55:46;9.20;99.90
27978;DHT22;15314;49.248;6.968;2023-04-25T05:56:47;9.30;99.90
27978;DHT22;15314;49.248;6.968;2023-04-25T05:57:48;9.30;99.90
27978;DHT22;15314;49.248;6.968;2023-04-25T05:58:48;9.40;99.90
27978;DHT22;15314;49.248;6.968;2023-04-25T05:59:49;9.40;99.90
27978;DHT22;15314;49.248;6.968;2023-04-25T06:00:50;9.40;99.90
27978;DHT22;15314;49.248;6.968;2023-04-25T06:01:51;9.40;99.90
27978;DHT22;15314;49.248;6.968;2023-04-25T06:02:52;9.40;99.90
27978;DHT22;15314;49.248;6.968;2023-04-25T06:03:52;9.50;99.90
27978;DHT22;15314;49.248;6.968;2023-04-25T06:04:53;9.40;99.90
27978;DHT22;15314;49.248;6.968;2023-04-25T06:05:54;9.40;99.90
27978;DHT22;15314;49.248;6.968;2023-04-25T06:06:54;9.30;99.90
27978;DHT22;15314;49.248;6.968;2023-04-25T06:07:55;9.40;99.90
27978;DHT22;15314;49.248;6.968;2023-04-25T06:08:56;9.30;99.90
27978;DHT22;15314;49.248;6.968;2023-04-25T06:09:57;9.40;99.90
27978;DHT22;15314;49.248;6.968;2023-04-25T06:10:57;9.40;99.90
27978;DHT22;15314;49.248;6.968;2023-04-25T06:11:58;9.40;99.90
27978;DHT22;15314;49.248;6.968;2023-04-25T06:12:58;9.40;99.90
27978;DHT22;15314;49.248;6.968;2023-04-25T06:14:00;9.40;99.90
27978;DHT22;15314;49.248;6.968;2023-04-25T06:15:01;9.40;99.90
27978;DHT22;15314;49.248;6.968;2023-04-25T06:16:02;9.40;99.90
27978;DHT22;15314;49.248;6.968;2023-04-25T06:17:03;9.50;99.90
27978;DHT22;15314;49.248;6.968;2023-04-25T06:18:08;9.50;99.90
27978;DHT22;15314;49.248;6.968;2023-04-25T06:19:09;9.50;99.90
27978;DHT22;15314;49.248;6.968;2023-04-25T06:20:10;9.50;99.90
27978;DHT22;15314;49.248;6.968;2023-04-25T06:21:11;9.50;99.90
27978;DHT22;15314;49.248;6.968;2023-04-25T06:22:11;9.40;99.90
27978;DHT22;15314;49.248;6.968;2023-04-25T06:23:12;9.50;99.90
27978;DHT22;15314;49.248;6.968;2023-04-25T06:24:13;9.50;99.90
27978;DHT22;15314;49.248;6.968;2023-04-25T06:25:13;9.50;99.90
27978;DHT22;15314;49.248;6.968;2023-04-25T06:26:14;9.50;99.90
27978;DHT22;15314;49.248;6.968;2023-04-25T06:27:15;9.50;99.90
27978;DHT22;15314;49.248;6.968;2023-04-25T06:28:15;9.50;99.90
27978;DHT22;15314;49.248;6.968;2023-04-25T06:29:16;9.50;99.90
27978;DHT22;15314;49.248;6.968;2023-04-25T06:30:17;9.60;99.90
27978;DHT22;15314;49.248;6.968;2023-04-25T06:31:22;9.60;99.90